Time;durP1;ratioP1;P1;durP2;ratioP2;P2;SDS_P1;SDS_P2;PMS_P1;PMS_P2;Temp;Humidity;BMP_temperature;BMP_pressure;BME280_temperature;BME280_humidity;BME280_pressure;Samples;Min_cycle;Max_cycle;Signal;HPM_P1;HPM_P2
2021/08/06 00:02:18;;;;;;;2.53;1.10;;;18.40;99.90;;;;;;5033980;28;20199;-58
2021/08/06 00:04:44;;;;;;;1.30;1.20;;;18.40;99.90;;;;;;5034820;28;20416;-58
2021/08/06 00:07:11;;;;;;;1.23;0.90;;;18.30;99.90;;;;;;5034503;28;20819;-57
2021/08/06 00:09:38;;;;;;;1.20;1.10;;;18.20;99.90;;;;;;5034455;28;20960;-58
2021/08/06 00:12:05;;;;;;;1.87;1.00;;;18.20;99.90;;;;;;5034137;28;20414;-57
2021/08/06 00:14:31;;;;;;;1.53;1.13;;;18.20;99.90;;;;;;5034125;28;20820;-58
2021/08/06 00:16:57;;;;;;;1.10;1.00;;;18.20;99.90;;;;;;5033590;28;20402;-58
2021/08/06 00:19:22;;;;;;;0.93;0.83;;;18.10;99.90;;;;;;5033808;28;20475;-55
2021/08/06 00:21:48;;;;;;;1.50;1.40;;;18.20;99.90;;;;;;5033950;28;20240;-58
2021/08/06 00:24:14;;;;;;;1.43;0.90;;;18.10;99.90;;;;;;5034323;28;20171;-57
2021/08/06 00:26:41;;;;;;;1.50;1.40;;;18.10;99.90;;;;;;5034057;28;20414;-57
2021/08/06 00:29:08;;;;;;;1.60;1.10;;;18.20;99.90;;;;;;5033777;28;20909;-58
2021/08/06 00:31:33;;;;;;;1.70;1.23;;;18.20;99.90;;;;;;5033570;28;20418;-58
2021/08/06 00:33:59;;;;;;;1.20;1.00;;;18.20;99.90;;;;;;5033673;28;20777;-58
2021/08/06 00:36:25;;;;;;;1.87;0.97;;;18.10;99.90;;;;;;5033672;28;20171;-58
2021/08/06 00:38:50;;;;;;;1.10;1.00;;;18.20;99.90;;;;;;5033806;28;20175;-56
2021/08/06 00:41:16;;;;;;;1.07;0.90;;;18.20;99.90;;;;;;5033473;28;20207;-58
2021/08/06 00:43:41;;;;;;;2.10;1.20;;;18.20;99.90;;;;;;5033965;28;20179;-57
2021/08/06 00:46:07;;;;;;;2.13;1.40;;;18.10;99.90;;;;;;5033538;28;20546;-58
2021/08/06 00:48:33;;;;;;;1.67;1.33;;;17.90;99.90;;;;;;5033541;28;20245;-58
2021/08/06 00:51:00;;;;;;;1.30;1.20;;;17.90;99.90;;;;;;5033592;28;20194;-57
2021/08/06 00:53:26;;;;;;;1.57;1.13;;;17.90;99.90;;;;;;5033828;28;20414;-58
2021/08/06 00:55:52;;;;;;;1.20;1.10;;;17.80;99.90;;;;;;5034234;28;20421;-58
2021/08/06 00:58:17;;;;;;;1.03;0.90;;;17.80;99.90;;;;;;5033410;28;20406;-58
2021/08/06 01:00:47;;;;;;;2.17;1.10;;;17.80;99.90;;;;;;5032957;28;20207;-57
2021/08/06 01:03:36;;;;;;;1.80;1.10;;;17.90;99.90;;;;;;5033557;28;20179;-58
2021/08/06 01:06:15;;;;;;;1.70;1.00;;;17.80;99.90;;;;;;5033252;28;20389;-58
2021/08/06 01:09:09;;;;;;;2.20;1.40;;;17.70;99.90;;;;;;5032748;28;20400;-56
2021/08/06 01:11:36;;;;;;;1.37;1.23;;;17.60;99.90;;;;;;5039587;28;20732;-57
2021/08/06 01:14:06;;;;;;;1.10;1.00;;;17.60;99.90;;;;;;5041609;28;20410;-58
2021/08/06 01:16:33;;;;;;;1.40;1.23;;;17.60;99.90;;;;;;5034832;28;20421;-57
2021/08/06 01:19:23;;;;;;;2.27;1.30;;;17.60;99.90;;;;;;5044260;28;20417;-58
2021/08/06 01:21:50;;;;;;;1.90;1.20;;;17.80;99.90;;;;;;5053299;28;20413;-57
2021/08/06 01:24:20;;;;;;;1.50;1.37;;;17.80;99.90;;;;;;5053344;28;20463;-58
2021/08/06 01:26:47;;;;;;;1.37;1.27;;;17.70;99.90;;;;;;5053075;28;20436;-55
2021/08/06 01:29:14;;;;;;;1.20;1.10;;;17.70;99.90;;;;;;5053029;28;20404;-57
2021/08/06 01:31:40;;;;;;;1.23;1.13;;;17.50;99.90;;;;;;5052566;28;20397;-58
2021/08/06 01:34:07;;;;;;;4.30;1.40;;;17.60;99.90;;;;;;5052945;28;20405;-57
2021/08/06 01:36:33;;;;;;;1.70;1.20;;;17.70;99.90;;;;;;5053442;28;20431;-58
2021/08/06 01:38:59;;;;;;;1.60;1.17;;;17.70;99.90;;;;;;5053119;28;20440;-58
2021/08/06 01:41:33;;;;;;;1.57;1.23;;;17.90;99.90;;;;;;5052700;28;20276;-57
2021/08/06 01:44:11;;;;;;;1.47;1.33;;;18.00;99.90;;;;;;5044476;28;20184;-57
2021/08/06 01:46:39;;;;;;;1.50;1.40;;;17.90;99.90;;;;;;5041393;28;20428;-58
2021/08/06 01:49:29;;;;;;;1.43;1.33;;;17.90;99.90;;;;;;5031471;28;20418;-58
2021/08/06 01:51:59;;;;;;;3.07;2.03;;;18.00;99.90;;;;;;5033139;28;20959;-58
2021/08/06 01:54:29;;;;;;;1.20;1.10;;;18.00;99.90;;;;;;5033391;28;20757;-57
2021/08/06 01:56:55;;;;;;;1.30;1.20;;;17.90;99.90;;;;;;5033362;28;20406;-57
2021/08/06 01:59:21;;;;;;;2.13;1.47;;;18.00;99.90;;;;;;5032737;28;20406;-58
2021/08/06 02:01:47;;;;;;;2.03;1.20;;;17.90;99.90;;;;;;5032573;28;20410;-57
2021/08/06 02:04:13;;;;;;;1.47;1.27;;;18.00;99.90;;;;;;5032974;28;20761;-58
2021/08/06 02:06:42;;;;;;;1.73;1.20;;;18.20;99.90;;;;;;5032718;28;20406;-58
2021/08/06 02:09:13;;;;;;;1.87;1.10;;;18.20;99.90;;;;;;5032539;28;20393;-58
2021/08/06 02:11:38;;;;;;;2.23;1.60;;;18.10;99.90;;;;;;5033082;28;20886;-56
2021/08/06 02:14:06;;;;;;;2.53;1.47;;;18.20;99.90;;;;;;5032630;28;20424;-57
2021/08/06 02:16:32;;;;;;;1.50;1.20;;;18.20;99.90;;;;;;5032206;28;20179;-58
2021/08/06 02:18:59;;;;;;;1.47;1.37;;;18.20;99.90;;;;;;5032832;28;20402;-57
2021/08/06 02:21:30;;;;;;;1.43;1.17;;;18.30;99.90;;;;;;5035363;28;20286;-57
2021/08/06 02:24:01;;;;;;;4.63;1.80;;;18.20;99.90;;;;;;5036199;28;20381;-58
2021/08/06 02:26:28;;;;;;;1.53;1.43;;;18.20;99.90;;;;;;5036200;28;20383;-57
2021/08/06 02:28:54;;;;;;;2.10;1.60;;;18.20;99.90;;;;;;5036426;28;20403;-58
2021/08/06 02:31:21;;;;;;;1.60;1.30;;;18.30;99.90;;;;;;5035505;28;20432;-58
2021/08/06 02:33:47;;;;;;;1.73;1.30;;;18.30;99.90;;;;;;5036263;28;20179;-58
2021/08/06 02:36:12;;;;;;;2.20;1.73;;;18.20;99.90;;;;;;5036176;28;20402;-58
2021/08/06 02:38:39;;;;;;;1.93;1.70;;;18.20;99.90;;;;;;5035897;28;20163;-58
2021/08/06 02:41:04;;;;;;;1.73;1.63;;;18.30;99.90;;;;;;5035673;28;20671;-58
2021/08/06 02:43:30;;;;;;;1.33;1.13;;;18.20;99.90;;;;;;5036150;28;20450;-58
2021/08/06 02:45:56;;;;;;;1.80;1.60;;;18.40;99.90;;;;;;5035591;28;20172;-58
2021/08/06 02:48:21;;;;;;;1.70;1.37;;;18.50;99.90;;;;;;5035771;28;20187;-57
2021/08/06 02:50:47;;;;;;;3.00;1.40;;;18.60;99.90;;;;;;5035899;28;20738;-57
2021/08/06 02:53:13;;;;;;;1.47;1.37;;;18.60;99.90;;;;;;5035488;28;20163;-58
2021/08/06 02:55:38;;;;;;;2.07;1.80;;;18.60;99.90;;;;;;5034840;28;20202;-58
2021/08/06 02:58:04;;;;;;;1.80;1.60;;;18.80;99.90;;;;;;5035618;28;20649;-57
2021/08/06 03:00:30;;;;;;;1.60;1.50;;;18.90;99.90;;;;;;5035644;28;20283;-58
2021/08/06 03:02:56;;;;;;;1.50;1.40;;;18.80;99.90;;;;;;5035709;28;20171;-57
2021/08/06 03:05:21;;;;;;;1.93;1.60;;;18.80;99.90;;;;;;5035711;28;20509;-58
2021/08/06 03:07:52;;;;;;;1.67;1.57;;;18.70;99.90;;;;;;5035374;28;20532;-57
2021/08/06 03:10:19;;;;;;;2.77;1.57;;;18.60;99.90;;;;;;5034984;28;20191;-57
2021/08/06 03:12:46;;;;;;;2.10;1.37;;;18.70;99.90;;;;;;5035530;28;20407;-58
2021/08/06 03:15:13;;;;;;;3.70;1.33;;;18.70;99.90;;;;;;5057380;28;20412;-58
2021/08/06 03:17:41;;;;;;;1.30;1.20;;;18.80;99.90;;;;;;5053862;28;20409;-58
2021/08/06 03:20:08;;;;;;;1.90;1.63;;;18.80;99.90;;;;;;5055182;28;20445;-58
2021/08/06 03:22:34;;;;;;;2.10;1.40;;;19.00;99.90;;;;;;5055254;28;20488;-57
2021/08/06 03:25:00;;;;;;;3.40;1.50;;;18.90;99.90;;;;;;5041102;28;20849;-57
2021/08/06 03:27:25;;;;;;;2.80;1.70;;;18.90;99.90;;;;;;5035315;28;20167;-58
2021/08/06 03:29:51;;;;;;;4.00;1.70;;;19.00;99.90;;;;;;5035041;28;20202;-57
2021/08/06 03:32:16;;;;;;;3.00;1.40;;;19.10;99.90;;;;;;5034281;28;20537;-58
2021/08/06 03:34:42;;;;;;;2.83;1.30;;;19.20;99.90;;;;;;5035399;28;20174;-58
2021/08/06 03:37:07;;;;;;;1.97;1.43;;;19.10;99.90;;;;;;5035060;28;20713;-58
2021/08/06 03:39:33;;;;;;;2.30;1.60;;;18.90;99.90;;;;;;5034202;28;20241;-55
2021/08/06 03:41:58;;;;;;;1.50;1.40;;;19.00;99.90;;;;;;5035315;28;20163;-56
2021/08/06 03:44:24;;;;;;;2.03;1.30;;;18.90;99.90;;;;;;5034663;28;20159;-56
2021/08/06 03:46:50;;;;;;;4.33;1.73;;;18.80;99.90;;;;;;5034935;28;20167;-53
2021/08/06 03:49:15;;;;;;;1.70;1.20;;;18.90;99.90;;;;;;5034562;28;20164;-58
2021/08/06 03:51:41;;;;;;;3.33;1.87;;;18.70;99.90;;;;;;5034463;28;20250;-58
2021/08/06 03:54:07;;;;;;;2.43;1.40;;;18.70;99.90;;;;;;5034163;28;20229;-56
2021/08/06 03:56:33;;;;;;;3.33;1.80;;;18.50;99.90;;;;;;5034548;28;20648;-56
2021/08/06 03:58:58;;;;;;;1.70;1.37;;;18.60;99.90;;;;;;5034407;28;20390;-56
2021/08/06 04:01:24;;;;;;;3.73;2.03;;;18.70;99.90;;;;;;5034250;28;20194;-56
2021/08/06 04:03:49;;;;;;;1.70;1.60;;;18.60;99.90;;;;;;5034478;28;20217;-57
2021/08/06 04:06:15;;;;;;;2.03;1.30;;;18.50;99.90;;;;;;5034524;28;20166;-58
2021/08/06 04:08:41;;;;;;;1.80;1.40;;;18.50;99.90;;;;;;5034161;28;20191;-57
2021/08/06 04:11:06;;;;;;;1.40;1.30;;;18.50;99.90;;;;;;5033908;28;20618;-58
2021/08/06 04:13:32;;;;;;;1.83;1.50;;;18.40;99.90;;;;;;5034445;28;20210;-57
2021/08/06 04:15:57;;;;;;;1.93;1.40;;;18.50;99.90;;;;;;5034321;28;20191;-57
2021/08/06 04:18:23;;;;;;;1.73;1.63;;;18.40;99.90;;;;;;5034320;28;20222;-58
2021/08/06 04:20:49;;;;;;;1.80;1.70;;;18.30;99.90;;;;;;5034093;28;20202;-58
2021/08/06 04:23:15;;;;;;;1.90;1.27;;;18.20;99.90;;;;;;5033923;28;20254;-56
2021/08/06 04:25:40;;;;;;;2.20;1.43;;;18.30;99.90;;;;;;5033456;28;20596;-58
2021/08/06 04:28:07;;;;;;;1.43;1.33;;;18.40;99.90;;;;;;5033983;28;20246;-56
2021/08/06 04:30:33;;;;;;;1.70;1.60;;;18.60;99.90;;;;;;5033738;28;20184;-58
2021/08/06 04:32:58;;;;;;;1.77;1.57;;;18.40;99.90;;;;;;5033783;28;20535;-58
2021/08/06 04:35:24;;;;;;;1.70;1.40;;;18.40;99.90;;;;;;5033872;28;20209;-57
2021/08/06 04:37:52;;;;;;;2.20;1.40;;;18.40;99.90;;;;;;5039063;28;20224;-57
2021/08/06 04:40:19;;;;;;;2.60;2.07;;;18.40;99.90;;;;;;5056757;23;20223;-58
2021/08/06 04:42:45;;;;;;;2.87;1.67;;;18.50;99.90;;;;;;5013822;28;20888;-58
2021/08/06 04:45:13;;;;;;;1.77;1.40;;;18.50;99.90;;;;;;5013080;28;20383;-58
2021/08/06 04:47:51;;;;;;;2.03;1.87;;;18.50;99.90;;;;;;5013587;28;20403;-58
2021/08/06 04:50:19;;;;;;;2.10;1.90;;;18.70;99.90;;;;;;5014027;28;20418;-58
2021/08/06 04:52:45;;;;;;;1.53;1.43;;;18.40;99.90;;;;;;5013856;28;20399;-57
2021/08/06 04:55:12;;;;;;;2.43;2.20;;;18.30;99.90;;;;;;5013131;28;20561;-57
2021/08/06 04:57:38;;;;;;;1.83;1.73;;;18.20;99.90;;;;;;5012218;28;20410;-58
2021/08/06 05:00:06;;;;;;;2.20;2.00;;;18.20;99.90;;;;;;5013658;28;20454;-58
2021/08/06 05:02:31;;;;;;;2.10;1.93;;;18.20;99.90;;;;;;5013746;28;20419;-55
2021/08/06 05:04:57;;;;;;;2.50;2.10;;;18.30;99.90;;;;;;5013697;28;20734;-56
2021/08/06 05:07:22;;;;;;;2.40;2.10;;;18.10;99.90;;;;;;5013581;28;20207;-57
2021/08/06 05:09:48;;;;;;;2.73;1.90;;;18.20;99.90;;;;;;5013236;28;20175;-57
2021/08/06 05:12:14;;;;;;;2.57;2.23;;;18.30;99.90;;;;;;5013501;28;20203;-58
2021/08/06 05:14:40;;;;;;;2.23;1.97;;;18.10;99.90;;;;;;5013676;28;20250;-55
2021/08/06 05:17:07;;;;;;;2.20;1.93;;;18.00;99.90;;;;;;5013609;28;20465;-58
2021/08/06 05:19:33;;;;;;;2.00;1.90;;;17.90;99.90;;;;;;5016023;28;20400;-58
2021/08/06 05:21:58;;;;;;;2.30;2.10;;;17.90;99.90;;;;;;5013306;28;20911;-58
2021/08/06 05:24:24;;;;;;;1.97;1.87;;;17.90;99.90;;;;;;5013312;28;20179;-58
2021/08/06 05:26:49;;;;;;;2.07;1.97;;;17.90;99.90;;;;;;5013402;28;20159;-58
2021/08/06 05:29:15;;;;;;;1.90;1.53;;;17.70;99.90;;;;;;5013452;28;20263;-55
2021/08/06 05:31:40;;;;;;;2.20;2.00;;;17.60;99.90;;;;;;5013203;28;20231;-57
2021/08/06 05:34:06;;;;;;;2.03;1.83;;;17.40;99.90;;;;;;5013424;28;20179;-55
2021/08/06 05:36:32;;;;;;;2.10;1.90;;;17.50;99.90;;;;;;5013354;28;20178;-57
2021/08/06 05:38:57;;;;;;;2.67;2.20;;;17.50;99.90;;;;;;5013057;28;20532;-58
2021/08/06 05:41:23;;;;;;;2.50;2.10;;;17.40;99.90;;;;;;5012447;28;20207;-55
2021/08/06 05:43:48;;;;;;;2.57;2.10;;;17.40;99.90;;;;;;5012977;28;20168;-55
2021/08/06 05:46:14;;;;;;;2.30;2.10;;;17.40;99.90;;;;;;5011648;28;20255;-55
2021/08/06 05:48:39;;;;;;;2.20;1.90;;;17.40;99.90;;;;;;5013069;28;20160;-56
2021/08/06 05:51:05;;;;;;;6.10;2.40;;;17.60;99.90;;;;;;5012914;28;20188;-54
2021/08/06 05:53:31;;;;;;;2.60;1.70;;;17.70;99.90;;;;;;5012795;28;20231;-58
2021/08/06 05:55:56;;;;;;;2.17;1.97;;;17.90;99.90;;;;;;5014806;28;20234;-57
2021/08/06 05:58:22;;;;;;;2.20;2.00;;;18.00;99.90;;;;;;5017588;28;20168;-59
2021/08/06 06:00:48;;;;;;;2.00;1.67;;;18.00;99.90;;;;;;5017372;28;20207;-58
2021/08/06 06:03:14;;;;;;;2.97;2.00;;;18.10;99.90;;;;;;5016819;28;20254;-53
2021/08/06 06:05:40;;;;;;;2.13;1.93;;;18.10;99.90;;;;;;5015880;28;20176;-58
2021/08/06 06:08:05;;;;;;;3.13;2.60;;;18.20;99.90;;;;;;5017205;28;20405;-53
2021/08/06 06:10:31;;;;;;;9.23;2.70;;;18.30;99.90;;;;;;5015994;28;20238;-57
2021/08/06 06:12:57;;;;;;;2.60;2.20;;;18.20;99.90;;;;;;5017077;28;20172;-57
2021/08/06 06:15:23;;;;;;;3.00;2.43;;;18.10;99.90;;;;;;5015407;28;20307;-58
2021/08/06 06:17:48;;;;;;;2.70;2.50;;;18.00;99.90;;;;;;5016924;28;20176;-58
2021/08/06 06:20:16;;;;;;;2.53;2.33;;;18.00;99.90;;;;;;5016354;28;20998;-56
2021/08/06 06:22:42;;;;;;;2.80;2.23;;;17.90;99.90;;;;;;5016519;28;20170;-58
2021/08/06 06:25:08;;;;;;;2.40;2.10;;;17.80;99.90;;;;;;5015813;28;20502;-57
2021/08/06 06:27:35;;;;;;;4.30;2.43;;;17.70;99.90;;;;;;5016275;28;20164;-58
2021/08/06 06:30:01;;;;;;;2.17;1.80;;;17.70;99.90;;;;;;5016092;28;20469;-57
2021/08/06 06:32:27;;;;;;;4.10;2.50;;;17.80;99.90;;;;;;5016143;28;20406;-57
2021/08/06 06:34:52;;;;;;;3.10;2.60;;;17.90;99.90;;;;;;5016121;28;20407;-56
2021/08/06 06:37:18;;;;;;;3.57;2.07;;;17.90;99.90;;;;;;5016301;28;20667;-56
2021/08/06 06:39:44;;;;;;;2.27;2.07;;;18.20;99.90;;;;;;5015362;28;20191;-58
2021/08/06 06:42:09;;;;;;;3.07;2.07;;;18.20;99.90;;;;;;5015836;28;20199;-58
2021/08/06 06:44:35;;;;;;;2.67;2.47;;;18.30;99.90;;;;;;5016114;28;20641;-57
2021/08/06 06:47:01;;;;;;;2.77;2.57;;;18.20;99.90;;;;;;5016035;28;20218;-58
2021/08/06 06:49:26;;;;;;;2.23;2.03;;;18.20;99.90;;;;;;5015976;28;20540;-57
2021/08/06 06:51:52;;;;;;;3.20;2.10;;;18.20;99.90;;;;;;5015661;28;20188;-58
2021/08/06 06:54:17;;;;;;;2.17;2.03;;;18.10;99.90;;;;;;5015561;28;20168;-58
2021/08/06 06:56:43;;;;;;;6.73;3.07;;;18.10;99.90;;;;;;5015624;28;20203;-58
2021/08/06 06:59:09;;;;;;;3.17;2.20;;;18.20;99.90;;;;;;5015826;28;20160;-58
2021/08/06 07:01:34;;;;;;;1.90;1.80;;;18.40;99.90;;;;;;5015618;28;20207;-57
2021/08/06 07:04:00;;;;;;;2.50;2.30;;;18.70;99.90;;;;;;5015839;28;20537;-58
2021/08/06 07:06:27;;;;;;;2.47;1.90;;;18.90;99.90;;;;;;5015153;28;20518;-58
2021/08/06 07:08:52;;;;;;;4.40;2.03;;;19.30;99.90;;;;;;5015680;28;20176;-58
2021/08/06 07:11:18;;;;;;;2.10;1.90;;;19.60;99.90;;;;;;5014928;28;20426;-58
2021/08/06 07:13:43;;;;;;;1.80;1.70;;;20.00;99.90;;;;;;5015459;28;20222;-57
2021/08/06 07:16:09;;;;;;;1.93;1.83;;;20.40;99.90;;;;;;5015386;28;20173;-56
2021/08/06 07:18:35;;;;;;;3.47;1.67;;;20.30;99.90;;;;;;5015054;28;20252;-57
2021/08/06 07:21:01;;;;;;;2.30;1.80;;;20.40;99.90;;;;;;5015471;28;20204;-55
2021/08/06 07:23:28;;;;;;;1.60;1.50;;;20.50;99.90;;;;;;5017599;28;20175;-58
2021/08/06 07:25:54;;;;;;;1.97;1.53;;;20.50;99.90;;;;;;5014570;28;20403;-58
2021/08/06 07:28:19;;;;;;;1.93;1.73;;;20.50;99.90;;;;;;5015569;28;20775;-57
2021/08/06 07:30:45;;;;;;;2.10;1.90;;;20.40;99.90;;;;;;5014157;28;20227;-56
2021/08/06 07:33:10;;;;;;;2.63;1.73;;;20.60;99.90;;;;;;5015006;28;20211;-56
2021/08/06 07:35:36;;;;;;;1.43;1.33;;;20.90;99.90;;;;;;5015192;28;20191;-55
2021/08/06 07:38:02;;;;;;;3.90;1.80;;;21.20;99.90;;;;;;5015348;28;20231;-58
2021/08/06 07:40:28;;;;;;;1.70;1.40;;;21.00;99.90;;;;;;5014144;28;20219;-58
2021/08/06 07:42:54;;;;;;;2.37;2.13;;;20.60;99.90;;;;;;5015013;28;20403;-56
2021/08/06 07:45:21;;;;;;;2.10;1.77;;;20.40;99.90;;;;;;5015058;28;20161;-58
2021/08/06 07:47:47;;;;;;;2.43;1.73;;;20.40;99.90;;;;;;5014924;28;20759;-58
2021/08/06 07:50:13;;;;;;;3.60;1.60;;;20.70;99.90;;;;;;5001980;28;20442;-57
2021/08/06 07:52:39;;;;;;;2.00;1.50;;;20.60;99.90;;;;;;5014981;28;20242;-56
2021/08/06 07:55:07;;;;;;;1.80;1.70;;;20.40;99.90;;;;;;5014150;28;20696;-54
2021/08/06 07:57:32;;;;;;;2.10;1.90;;;20.40;99.90;;;;;;5014566;28;20407;-58
2021/08/06 07:59:58;;;;;;;3.33;1.60;;;20.40;99.90;;;;;;5014421;28;20458;-56
2021/08/06 08:02:25;;;;;;;2.23;2.03;;;19.90;99.90;;;;;;5014429;28;20225;-57
2021/08/06 08:04:50;;;;;;;2.37;2.17;;;19.40;99.90;;;;;;5015176;28;20617;-58
2021/08/06 08:07:16;;;;;;;2.00;1.80;;;19.30;99.90;;;;;;5014419;28;20485;-58
2021/08/06 08:09:42;;;;;;;2.10;1.37;;;19.00;99.90;;;;;;5014053;28;20444;-58
2021/08/06 08:12:08;;;;;;;1.37;1.20;;;18.90;99.90;;;;;;5014042;28;20218;-57
2021/08/06 08:14:33;;;;;;;2.70;1.47;;;18.60;99.90;;;;;;5014196;28;20184;-55
2021/08/06 08:16:59;;;;;;;1.10;1.00;;;18.60;99.90;;;;;;5014416;28;20259;-56
2021/08/06 08:19:25;;;;;;;1.80;1.70;;;18.60;99.90;;;;;;5014009;28;20415;-58
2021/08/06 08:21:51;;;;;;;1.47;1.27;;;18.50;99.90;;;;;;5014178;28;20191;-55
2021/08/06 08:24:17;;;;;;;1.27;0.90;;;18.70;99.90;;;;;;5014075;28;20491;-58
2021/08/06 08:26:43;;;;;;;1.37;1.10;;;18.80;99.90;;;;;;5013580;28;20416;-58
2021/08/06 08:29:08;;;;;;;2.70;1.13;;;19.00;99.90;;;;;;5014290;28;20701;-58
2021/08/06 08:31:34;;;;;;;2.57;1.20;;;19.20;99.90;;;;;;5013892;28;20215;-55
2021/08/06 08:34:00;;;;;;;1.07;0.97;;;19.50;99.90;;;;;;5014336;28;20179;-58
2021/08/06 08:36:27;;;;;;;0.87;0.70;;;19.50;99.90;;;;;;5013904;28;20410;-56
2021/08/06 08:38:52;;;;;;;1.23;0.90;;;20.00;99.90;;;;;;5010076;28;20172;-57
2021/08/06 08:41:18;;;;;;;4.43;1.40;;;20.40;99.90;;;;;;5012843;28;20463;-58
2021/08/06 08:43:44;;;;;;;1.83;0.87;;;20.50;99.90;;;;;;5013826;28;20691;-57
2021/08/06 08:46:11;;;;;;;1.10;0.80;;;20.90;99.90;;;;;;5013979;28;20645;-58
2021/08/06 08:48:37;;;;;;;2.93;1.17;;;20.40;99.90;;;;;;5013989;28;20250;-58
2021/08/06 08:51:04;;;;;;;1.57;1.10;;;20.60;99.90;;;;;;5013911;28;20501;-58
2021/08/06 08:53:30;;;;;;;1.47;0.83;;;20.80;99.90;;;;;;5013635;28;20404;-58
2021/08/06 08:55:57;;;;;;;1.43;0.93;;;21.10;99.90;;;;;;5013129;28;20406;-58
2021/08/06 08:58:23;;;;;;;1.53;1.13;;;21.40;99.90;;;;;;5013845;28;20487;-57
2021/08/06 09:00:49;;;;;;;1.70;0.93;;;21.50;99.90;;;;;;5013428;28;20451;-57
2021/08/06 09:03:48;;;;;;;1.20;1.10;;;21.50;99.90;;;;;;5013912;28;20817;-58
2021/08/06 09:06:14;;;;;;;3.53;1.10;;;21.30;99.90;;;;;;5013855;28;20402;-58
2021/08/06 09:08:41;;;;;;;1.27;1.00;;;21.30;99.90;;;;;;5013690;28;20403;-57
2021/08/06 09:11:33;;;;;;;3.30;1.20;;;21.70;99.90;;;;;;5012697;28;20838;-57
2021/08/06 09:14:15;;;;;;;1.33;0.97;;;22.10;99.90;;;;;;5013823;28;20394;-57
2021/08/06 09:17:05;;;;;;;2.23;0.90;;;22.10;99.90;;;;;;5013681;28;20383;-58
2021/08/06 09:19:36;;;;;;;2.70;1.60;;;22.20;99.90;;;;;;5013344;28;20397;-58
2021/08/06 09:22:22;;;;;;;1.20;1.10;;;22.60;99.90;;;;;;5016001;28;20778;-58
2021/08/06 09:25:09;;;;;;;1.73;1.00;;;22.50;99.90;;;;;;5013389;28;20407;-58
2021/08/06 09:27:40;;;;;;;0.93;0.83;;;22.30;99.90;;;;;;5013361;28;20390;-57
2021/08/06 09:30:10;;;;;;;1.80;0.90;;;22.30;99.90;;;;;;5014138;28;20426;-57
2021/08/06 09:33:07;;;;;;;1.57;1.00;;;22.10;99.90;;;;;;5017412;28;20425;-57
2021/08/06 09:35:35;;;;;;;2.67;1.27;;;22.10;99.90;;;;;;5005754;28;20792;-58
2021/08/06 09:38:02;;;;;;;1.03;0.90;;;21.90;99.90;;;;;;5017423;28;20411;-56
2021/08/06 09:40:31;;;;;;;2.80;1.00;;;22.10;99.90;;;;;;5016445;28;20466;-58
2021/08/06 09:43:01;;;;;;;6.63;1.60;;;21.90;99.90;;;;;;5017785;28;20486;-58
2021/08/06 09:45:41;;;;;;;2.60;0.90;;;22.30;99.90;;;;;;5016839;28;20464;-57
2021/08/06 09:48:08;;;;;;;2.97;0.90;;;22.20;99.90;;;;;;5016914;28;20398;-55
2021/08/06 09:50:38;;;;;;;1.30;0.80;;;22.30;99.90;;;;;;5017111;28;20415;-57
2021/08/06 09:53:05;;;;;;;1.33;0.90;;;22.40;99.90;;;;;;5017025;28;20411;-57
2021/08/06 09:55:33;;;;;;;1.13;1.03;;;21.80;99.90;;;;;;5016198;28;20525;-57
2021/08/06 09:58:02;;;;;;;2.53;1.20;;;21.90;99.90;;;;;;5016645;28;20407;-55
2021/08/06 10:00:28;;;;;;;3.20;1.30;;;21.50;99.90;;;;;;5016981;28;20470;-56
2021/08/06 10:02:56;;;;;;;2.27;1.10;;;21.80;99.90;;;;;;5017414;28;20411;-57
2021/08/06 10:05:24;;;;;;;1.73;1.23;;;21.90;99.90;;;;;;5016700;28;20402;-58
2021/08/06 10:07:52;;;;;;;6.90;1.47;;;22.20;99.90;;;;;;5017058;28;20502;-57
2021/08/06 10:10:23;;;;;;;1.30;1.20;;;22.10;99.90;;;;;;5016170;28;20481;-55
2021/08/06 10:12:51;;;;;;;1.93;1.33;;;22.00;99.90;;;;;;5016986;28;20394;-58
2021/08/06 10:15:18;;;;;;;1.67;1.00;;;22.40;99.90;;;;;;5016359;28;20949;-57
2021/08/06 10:17:43;;;;;;;2.90;1.40;;;23.00;99.90;;;;;;5016810;28;20410;-57
2021/08/06 10:20:12;;;;;;;1.83;1.23;;;23.10;99.90;;;;;;5016545;28;20458;-58
2021/08/06 10:22:39;;;;;;;2.20;1.00;;;23.10;99.90;;;;;;5016017;28;20243;-58
2021/08/06 10:25:08;;;;;;;2.07;1.33;;;23.00;99.90;;;;;;5010675;28;20407;-57
2021/08/06 10:27:35;;;;;;;1.27;1.17;;;22.90;99.90;;;;;;5016552;28;20403;-58
2021/08/06 10:30:03;;;;;;;1.70;1.60;;;23.10;99.90;;;;;;5016441;28;20430;-58
2021/08/06 10:32:29;;;;;;;1.43;1.17;;;23.10;99.90;;;;;;5016966;28;20919;-58
2021/08/06 10:35:10;;;;;;;3.67;1.10;;;22.70;99.90;;;;;;5016677;28;20490;-58
2021/08/06 10:37:50;;;;;;;1.97;1.30;;;22.40;99.90;;;;;;5016450;28;20406;-58
2021/08/06 10:42:44;;;;;;;1.70;1.30;;;22.90;99.90;;;;;;5012272;28;20463;-58
2021/08/06 10:45:09;;;;;;;1.33;1.00;;;23.00;99.90;;;;;;5016662;28;20406;-59
2021/08/06 10:47:49;;;;;;;2.20;1.33;;;22.90;99.90;;;;;;5016293;28;20168;-59
2021/08/06 10:50:18;;;;;;;1.87;1.30;;;22.90;99.90;;;;;;5016991;28;20524;-58
2021/08/06 10:53:03;;;;;;;1.50;1.07;;;22.90;99.90;;;;;;5014767;28;20410;-57
2021/08/06 10:55:29;;;;;;;2.10;1.23;;;22.90;99.90;;;;;;5015125;28;20501;-53
2021/08/06 10:57:55;;;;;;;1.80;1.17;;;23.40;99.90;;;;;;5015723;28;20434;-58
2021/08/06 11:00:38;;;;;;;1.13;0.93;;;23.60;99.90;;;;;;5015968;28;20196;-59
2021/08/06 11:03:24;;;;;;;1.30;1.10;;;23.50;99.90;;;;;;5015942;28;20156;-60
2021/08/06 11:05:50;;;;;;;1.70;1.00;;;23.60;99.90;;;;;;5016076;28;20825;-59
2021/08/06 11:08:46;;;;;;;1.67;1.13;;;23.50;99.90;;;;;;5015613;28;20436;-60
2021/08/06 11:11:51;;;;;;;1.30;1.10;;;23.30;99.90;;;;;;5014403;28;20195;-57
2021/08/06 11:14:32;;;;;;;1.33;0.97;;;23.00;99.90;;;;;;5015482;28;20402;-59
2021/08/06 11:17:16;;;;;;;2.40;1.47;;;22.70;99.90;;;;;;5013985;28;20406;-56
2021/08/06 11:19:45;;;;;;;3.83;1.30;;;22.60;99.90;;;;;;5015537;28;20383;-58
2021/08/06 11:22:17;;;;;;;3.63;1.30;;;22.50;99.90;;;;;;5015280;28;20891;-58
2021/08/06 11:24:46;;;;;;;2.73;1.37;;;22.40;99.90;;;;;;5015275;28;20486;-58
2021/08/06 11:27:12;;;;;;;2.00;1.73;;;22.70;99.90;;;;;;5010681;28;20961;-59
2021/08/06 11:29:40;;;;;;;1.63;1.43;;;23.80;99.90;;;;;;5015205;28;20494;-57
2021/08/06 11:32:11;;;;;;;4.37;1.70;;;24.50;99.90;;;;;;5017466;28;20430;-59
2021/08/06 11:34:53;;;;;;;2.70;1.00;;;24.50;99.90;;;;;;5015388;28;20441;-59
2021/08/06 11:37:22;;;;;;;1.00;0.80;;;24.30;99.90;;;;;;5015280;28;20399;-60
2021/08/06 11:40:01;;;;;;;2.50;1.30;;;24.10;99.90;;;;;;5015138;28;20419;-58
2021/08/06 11:42:27;;;;;;;1.73;0.97;;;23.90;99.90;;;;;;5014457;28;20451;-58
2021/08/06 11:44:56;;;;;;;2.80;1.47;;;23.50;99.90;;;;;;5015034;28;20403;-59
2021/08/06 11:47:42;;;;;;;2.40;1.47;;;23.20;99.90;;;;;;5014811;28;20247;-57
2021/08/06 11:50:10;;;;;;;4.17;1.50;;;23.30;99.90;;;;;;5015103;28;20797;-57
2021/08/06 11:52:41;;;;;;;1.77;0.90;;;23.30;99.90;;;;;;5014274;28;20431;-59
2021/08/06 11:55:08;;;;;;;1.90;1.00;;;23.20;99.90;;;;;;5014988;28;20770;-55
2021/08/06 11:57:54;;;;;;;1.97;1.33;;;22.80;99.90;;;;;;5014230;28;20395;-59
2021/08/06 12:00:28;;;;;;;2.80;1.00;;;22.80;99.90;;;;;;5014686;28;20439;-59
2021/08/06 12:03:05;;;;;;;3.00;1.70;;;22.40;99.90;;;;;;5013583;28;20406;-58
2021/08/06 12:05:32;;;;;;;3.20;1.07;;;22.50;99.90;;;;;;5014876;28;20407;-59
2021/08/06 12:07:57;;;;;;;3.23;1.80;;;22.50;99.90;;;;;;5014570;28;20407;-59
2021/08/06 12:10:25;;;;;;;4.90;2.13;;;22.70;99.90;;;;;;5014003;28;20414;-57
2021/08/06 12:12:51;;;;;;;1.60;1.00;;;23.20;99.90;;;;;;5014312;28;20211;-60
2021/08/06 12:15:22;;;;;;;1.20;0.87;;;23.10;99.90;;;;;;5014248;28;20453;-59
2021/08/06 12:18:08;;;;;;;2.57;1.33;;;23.10;99.90;;;;;;5014248;28;20395;-59
2021/08/06 12:20:39;;;;;;;1.90;1.13;;;22.90;99.90;;;;;;5014291;28;20517;-59
2021/08/06 12:23:05;;;;;;;1.40;1.00;;;24.50;99.90;;;;;;5014506;28;20849;-59
2021/08/06 12:25:32;;;;;;;5.57;1.33;;;27.40;97.90;;;;;;5014109;28;20407;-60
2021/08/06 12:27:59;;;;;;;2.70;1.00;;;28.80;95.00;;;;;;5014000;28;20912;-58
2021/08/06 12:30:31;;;;;;;1.30;1.03;;;28.30;94.10;;;;;;5013993;28;20537;-59
2021/08/06 12:32:58;;;;;;;1.67;1.00;;;27.00;95.00;;;;;;5013948;28;20903;-59
2021/08/06 12:35:25;;;;;;;1.97;1.10;;;27.00;96.00;;;;;;5014167;28;20410;-60
2021/08/06 12:37:51;;;;;;;2.10;1.00;;;27.50;96.30;;;;;;5014218;28;20403;-60
2021/08/06 12:40:17;;;;;;;1.30;1.07;;;27.30;94.50;;;;;;5012567;28;20455;-60
2021/08/06 12:42:43;;;;;;;1.77;1.10;;;27.90;93.90;;;;;;5013582;28;20423;-59
2021/08/06 12:45:20;;;;;;;1.00;0.90;;;28.20;94.20;;;;;;5014010;28;20496;-56
2021/08/06 12:47:51;;;;;;;1.77;1.33;;;29.20;92.90;;;;;;5013934;28;20178;-59
2021/08/06 12:50:22;;;;;;;2.60;1.00;;;30.30;90.80;;;;;;5013747;28;20919;-54
2021/08/06 12:53:04;;;;;;;1.20;1.07;;;30.00;88.80;;;;;;5013775;28;20403;-58
2021/08/06 12:55:31;;;;;;;1.23;1.10;;;31.30;89.00;;;;;;5013858;28;20439;-55
2021/08/06 12:58:05;;;;;;;1.53;0.80;;;31.00;83.60;;;;;;5013688;28;20406;-55